Time;durP1;ratioP1;P1;durP2;ratioP2;P2;SDS_P1;SDS_P2;PMS_P1;PMS_P2;Temp;Humidity;BMP_temperature;BMP_pressure;BME280_temperature;BME280_humidity;BME280_pressure;Samples;Min_cycle;Max_cycle;Signal;HPM_P1;HPM_P2
2022/07/11 00:00:16;;;;;;;;;;;;;;;;;;2132242;27;19985;-45
2022/07/11 00:01:17;;;;;;;;;;;;;;;;;;2132263;27;20047;-44
2022/07/11 00:02:19;;;;;;;;;;;;;;;;;;2132233;27;19923;-46
2022/07/11 00:03:19;;;;;;;;;;;;;;;;;;2132327;27;19959;-44
2022/07/11 00:04:21;;;;;;;;;;;;;;;;;;2132210;27;20352;-44
2022/07/11 00:05:21;;;;;;;;;;;;;;;;;;2132143;27;20379;-46
2022/07/11 00:06:22;;;;;;;;;;;;;;;;;;2132125;27;19927;-45
2022/07/11 00:07:23;;;;;;;;;;;;;;;;;;2132508;27;20018;-44
2022/07/11 00:08:24;;;;;;;;;;;;;;;;;;2132005;27;20471;-45
2022/07/11 00:09:25;;;;;;;;;;;;;;;;;;2132172;27;20369;-44
2022/07/11 00:10:26;;;;;;;;;;;;;;;;;;2132376;27;19927;-45
2022/07/11 00:11:27;;;;;;;;;;;;;;;;;;2136732;27;20037;-43
2022/07/11 00:12:28;;;;;;;;;;;;;;;;;;2140713;27;19922;-42
2022/07/11 00:13:28;;;;;;;;;;;;;;;;;;2140797;27;19966;-42
2022/07/11 00:14:29;;;;;;;;;;;;;;;;;;2140876;27;19950;-43
2022/07/11 00:15:30;;;;;;;;;;;;;;;;;;2140957;27;19945;-43
2022/07/11 00:16:31;;;;;;;;;;;;;;;;;;2140702;27;20379;-43
2022/07/11 00:17:32;;;;;;;;;;;;;;;;;;2140716;27;20009;-42
2022/07/11 00:18:33;;;;;;;;;;;;;;;;;;2140747;27;19927;-42
2022/07/11 00:19:34;;;;;;;;;;;;;;;;;;2140742;27;20013;-42
2022/07/11 00:20:35;;;;;;;;;;;;;;;;;;2140547;27;19922;-43
2022/07/11 00:21:36;;;;;;;;;;;;;;;;;;2140863;27;20016;-43
2022/07/11 00:22:37;;;;;;;;;;;;;;;;;;2140923;27;19922;-44
2022/07/11 00:23:38;;;;;;;;;;;;;;;;;;2140773;27;20013;-43
2022/07/11 00:24:39;;;;;;;;;;;;;;;;;;2140862;27;19923;-43
2022/07/11 00:25:39;;;;;;;;;;;;;;;;;;2140859;27;19948;-44
2022/07/11 00:26:40;;;;;;;;;;;;;;;;;;2140688;27;20383;-43
2022/07/11 00:27:41;;;;;;;;;;;;;;;;;;2140730;27;19923;-44
2022/07/11 00:28:46;;;;;;;;;;;;;;;;;;2140613;27;19923;-43
2022/07/11 00:29:47;;;;;;;;;;;;;;;;;;2140542;27;20383;-44
2022/07/11 00:30:48;;;;;;;;;;;;;;;;;;2140679;27;20010;-43
2022/07/11 00:31:48;;;;;;;;;;;;;;;;;;2140697;27;19926;-43
2022/07/11 00:32:50;;;;;;;;;;;;;;;;;;2140559;27;19927;-44
2022/07/11 00:33:50;;;;;;;;;;;;;;;;;;2140669;27;19975;-43
2022/07/11 00:34:51;;;;;;;;;;;;;;;;;;2140804;27;19969;-43
2022/07/11 00:35:52;;;;;;;;;;;;;;;;;;2140479;27;19923;-44
2022/07/11 00:36:53;;;;;;;;;;;;;;;;;;2140596;27;20010;-43
2022/07/11 00:37:54;;;;;;;;;;;;;;;;;;2140642;27;19927;-44
2022/07/11 00:38:55;;;;;;;;;;;;;;;;;;2140684;27;19923;-43
2022/07/11 00:39:59;;;;;;;;;;;;;;;;;;2140631;27;19923;-43
2022/07/11 00:41:00;;;;;;;;;;;;;;;;;;2140628;27;20017;-43
2022/07/11 00:42:00;;;;;;;;;;;;;;;;;;2140801;27;19938;-43
2022/07/11 00:43:01;;;;;;;;;;;;;;;;;;2140651;27;19934;-44
2022/07/11 00:44:02;;;;;;;;;;;;;;;;;;2140795;27;19923;-43
2022/07/11 00:45:03;;;;;;;;;;;;;;;;;;2140652;27;19974;-43
2022/07/11 00:46:04;;;;;;;;;;;;;;;;;;2140466;27;19927;-43
2022/07/11 00:47:05;;;;;;;;;;;;;;;;;;2140526;27;19923;-43
2022/07/11 00:48:05;;;;;;;;;;;;;;;;;;2140581;27;20006;-43
2022/07/11 00:49:06;;;;;;;;;;;;;;;;;;2140384;27;20291;-44
2022/07/11 00:50:07;;;;;;;;;;;;;;;;;;2140737;27;20295;-46
2022/07/11 00:51:08;;;;;;;;;;;;;;;;;;2140483;27;20245;-45
2022/07/11 00:52:09;;;;;;;;;;;;;;;;;;2140644;27;19923;-46
2022/07/11 00:53:10;;;;;;;;;;;;;;;;;;2140347;27;19924;-44
2022/07/11 00:54:11;;;;;;;;;;;;;;;;;;2140343;27;20011;-44
2022/07/11 00:55:12;;;;;;;;;;;;;;;;;;2140595;27;19926;-45
2022/07/11 00:56:12;;;;;;;;;;;;;;;;;;2140480;27;20394;-47
2022/07/11 00:57:13;;;;;;;;;;;;;;;;;;2140419;27;19927;-46
2022/07/11 00:58:14;;;;;;;;;;;;;;;;;;2140457;27;20063;-45
2022/07/11 00:59:15;;;;;;;;;;;;;;;;;;2140892;27;19964;-43
2022/07/11 01:00:17;;;;;;;;;;;;;;;;;;2140397;27;20375;-43
2022/07/11 01:01:18;;;;;;;;;;;;;;;;;;2140547;27;19931;-44
2022/07/11 01:02:19;;;;;;;;;;;;;;;;;;2140473;27;20173;-44
2022/07/11 01:03:20;;;;;;;;;;;;;;;;;;2140343;27;19922;-43
2022/07/11 01:04:20;;;;;;;;;;;;;;;;;;2140536;27;19948;-43
2022/07/11 01:05:22;;;;;;;;;;;;;;;;;;2140463;27;19923;-43
2022/07/11 01:06:22;;;;;;;;;;;;;;;;;;2140260;27;19966;-43
2022/07/11 01:07:23;;;;;;;;;;;;;;;;;;2140400;27;19946;-44
2022/07/11 01:08:24;;;;;;;;;;;;;;;;;;2140359;27;20017;-43
2022/07/11 01:09:25;;;;;;;;;;;;;;;;;;2140215;27;19948;-43
2022/07/11 01:10:26;;;;;;;;;;;;;;;;;;2140465;27;20039;-44
2022/07/11 01:11:27;;;;;;;;;;;;;;;;;;2135542;27;19970;-43
2022/07/11 01:12:27;;;;;;;;;;;;;;;;;;2131699;27;20026;-43
2022/07/11 01:13:28;;;;;;;;;;;;;;;;;;2131831;27;19968;-43
2022/07/11 01:14:30;;;;;;;;;;;;;;;;;;2131779;27;20391;-42
2022/07/11 01:15:31;;;;;;;;;;;;;;;;;;2131775;27;20005;-45
2022/07/11 01:16:32;;;;;;;;;;;;;;;;;;2131837;27;19966;-45
2022/07/11 01:17:33;;;;;;;;;;;;;;;;;;2131704;27;19930;-44
2022/07/11 01:18:34;;;;;;;;;;;;;;;;;;2131661;27;19934;-45
2022/07/11 01:19:35;;;;;;;;;;;;;;;;;;2131697;27;19939;-44
2022/07/11 01:20:36;;;;;;;;;;;;;;;;;;2131685;27;19930;-44
2022/07/11 01:21:38;;;;;;;;;;;;;;;;;;2131577;27;19976;-45
2022/07/11 01:22:39;;;;;;;;;;;;;;;;;;2131677;27;19958;-45
2022/07/11 01:23:40;;;;;;;;;;;;;;;;;;2131865;27;20055;-45
2022/07/11 01:24:41;;;;;;;;;;;;;;;;;;2131551;27;19923;-45
2022/07/11 01:25:42;;;;;;;;;;;;;;;;;;2131820;27;19954;-45
2022/07/11 01:26:43;;;;;;;;;;;;;;;;;;2131523;27;19946;-46
2022/07/11 01:27:44;;;;;;;;;;;;;;;;;;2131727;27;19969;-45
2022/07/11 01:28:45;;;;;;;;;;;;;;;;;;2131937;27;20337;-43
2022/07/11 01:29:46;;;;;;;;;;;;;;;;;;2131581;27;20014;-43
2022/07/11 01:30:47;;;;;;;;;;;;;;;;;;2131775;27;20363;-43
2022/07/11 01:31:48;;;;;;;;;;;;;;;;;;2131817;27;19923;-45
2022/07/11 01:32:49;;;;;;;;;;;;;;;;;;2131594;27;19976;-45
2022/07/11 01:33:50;;;;;;;;;;;;;;;;;;2131564;27;19927;-45
2022/07/11 01:34:51;;;;;;;;;;;;;;;;;;2131883;27;20005;-44
2022/07/11 01:35:52;;;;;;;;;;;;;;;;;;2131703;27;20287;-46
2022/07/11 01:36:53;;;;;;;;;;;;;;;;;;2131654;27;20372;-45
2022/07/11 01:37:54;;;;;;;;;;;;;;;;;;2131755;27;19927;-45
2022/07/11 01:39:00;;;;;;;;;;;;;;;;;;2131728;27;19927;-45
2022/07/11 01:40:01;;;;;;;;;;;;;;;;;;2131656;27;19933;-46
2022/07/11 01:41:02;;;;;;;;;;;;;;;;;;2131468;27;19934;-45
2022/07/11 01:42:03;;;;;;;;;;;;;;;;;;2131870;27;19927;-45
2022/07/11 01:43:03;;;;;;;;;;;;;;;;;;2131726;27;19934;-45
2022/07/11 01:44:05;;;;;;;;;;;;;;;;;;2131570;27;19923;-45
2022/07/11 01:45:05;;;;;;;;;;;;;;;;;;2131786;27;19923;-46
2022/07/11 01:46:06;;;;;;;;;;;;;;;;;;2131475;27;19923;-45
2022/07/11 01:47:07;;;;;;;;;;;;;;;;;;2131552;27;20346;-45
2022/07/11 01:48:08;;;;;;;;;;;;;;;;;;2131711;27;19929;-45
2022/07/11 01:49:09;;;;;;;;;;;;;;;;;;2133206;27;19945;-45
2022/07/11 01:50:10;;;;;;;;;;;;;;;;;;2140080;27;20383;-45
2022/07/11 01:51:11;;;;;;;;;;;;;;;;;;2140168;27;20351;-45
2022/07/11 01:52:11;;;;;;;;;;;;;;;;;;2140092;27;20044;-45
2022/07/11 01:53:12;;;;;;;;;;;;;;;;;;2140309;27;19923;-45
2022/07/11 01:54:13;;;;;;;;;;;;;;;;;;2140209;27;19934;-45
2022/07/11 01:55:14;;;;;;;;;;;;;;;;;;2140191;27;20017;-45
2022/07/11 01:56:15;;;;;;;;;;;;;;;;;;2140344;27;20017;-45
2022/07/11 01:57:19;;;;;;;;;;;;;;;;;;2140470;27;19923;-43
2022/07/11 01:58:20;;;;;;;;;;;;;;;;;;2140092;27;19961;-43
2022/07/11 01:59:21;;;;;;;;;;;;;;;;;;2140148;27;20356;-43
2022/07/11 02:00:22;;;;;;;;;;;;;;;;;;2140126;27;19923;-44
2022/07/11 02:01:23;;;;;;;;;;;;;;;;;;2141020;27;20021;-43
2022/07/11 02:02:24;;;;;;;;;;;;;;;;;;2141694;27;19933;-44
2022/07/11 02:03:25;;;;;;;;;;;;;;;;;;2141625;27;20390;-43
2022/07/11 02:04:26;;;;;;;;;;;;;;;;;;2141777;27;19929;-43
2022/07/11 02:05:26;;;;;;;;;;;;;;;;;;2141675;27;19923;-44
2022/07/11 02:06:27;;;;;;;;;;;;;;;;;;2141515;27;20307;-44
2022/07/11 02:08:44;;;;;;;;;;;;;;;;;;2123883;27;20014;-43
2022/07/11 02:09:45;;;;;;;;;;;;;;;;;;2141561;27;20359;-43
2022/07/11 02:10:46;;;;;;;;;;;;;;;;;;2141964;27;20164;-43
2022/07/11 02:11:47;;;;;;;;;;;;;;;;;;2133927;27;20014;-44
2022/07/11 02:12:48;;;;;;;;;;;;;;;;;;2133121;27;19961;-43
2022/07/11 02:13:48;;;;;;;;;;;;;;;;;;2133219;27;19923;-43
2022/07/11 02:14:49;;;;;;;;;;;;;;;;;;2132946;27;20014;-43
2022/07/11 02:15:51;;;;;;;;;;;;;;;;;;2133268;27;19934;-45
2022/07/11 02:16:52;;;;;;;;;;;;;;;;;;2132844;27;20018;-46
2022/07/11 02:17:52;;;;;;;;;;;;;;;;;;2133022;27;19926;-45
2022/07/11 02:18:53;;;;;;;;;;;;;;;;;;2132924;27;19954;-45
2022/07/11 02:19:54;;;;;;;;;;;;;;;;;;2133202;27;20006;-44
2022/07/11 02:20:55;;;;;;;;;;;;;;;;;;2132718;27;20374;-43
2022/07/11 02:21:56;;;;;;;;;;;;;;;;;;2133229;27;19929;-43
2022/07/11 02:22:58;;;;;;;;;;;;;;;;;;2132883;27;19955;-42
2022/07/11 02:24:00;;;;;;;;;;;;;;;;;;2133205;27;20022;-44
2022/07/11 02:25:01;;;;;;;;;;;;;;;;;;2133251;27;19933;-47
2022/07/11 02:26:02;;;;;;;;;;;;;;;;;;2132804;27;19966;-46
2022/07/11 02:27:03;;;;;;;;;;;;;;;;;;2132995;27;20022;-45
2022/07/11 02:28:03;;;;;;;;;;;;;;;;;;2132893;27;20376;-45
2022/07/11 02:29:04;;;;;;;;;;;;;;;;;;2133501;27;20015;-45
2022/07/11 02:30:05;;;;;;;;;;;;;;;;;;2133299;27;20017;-45
2022/07/11 02:31:06;;;;;;;;;;;;;;;;;;2132799;27;20026;-45
2022/07/11 02:32:07;;;;;;;;;;;;;;;;;;2133012;27;19968;-43
2022/07/11 02:33:08;;;;;;;;;;;;;;;;;;2132780;27;19984;-43
2022/07/11 02:34:08;;;;;;;;;;;;;;;;;;2132981;27;19983;-43
2022/07/11 02:35:09;;;;;;;;;;;;;;;;;;2132727;27;19923;-44
2022/07/11 02:36:10;;;;;;;;;;;;;;;;;;2132860;27;19923;-43
2022/07/11 02:37:11;;;;;;;;;;;;;;;;;;2132752;27;20034;-43
2022/07/11 02:38:12;;;;;;;;;;;;;;;;;;2132884;27;19923;-44
2022/07/11 02:39:13;;;;;;;;;;;;;;;;;;2132827;27;19930;-43
2022/07/11 02:40:14;;;;;;;;;;;;;;;;;;2133079;27;19958;-43
2022/07/11 02:41:15;;;;;;;;;;;;;;;;;;2132611;27;20317;-43
2022/07/11 02:42:15;;;;;;;;;;;;;;;;;;2132757;27;20431;-43
2022/07/11 02:43:16;;;;;;;;;;;;;;;;;;2132860;27;20018;-43
2022/07/11 02:44:17;;;;;;;;;;;;;;;;;;2132850;27;19923;-43
2022/07/11 02:45:18;;;;;;;;;;;;;;;;;;2133430;27;20118;-44
2022/07/11 02:46:19;;;;;;;;;;;;;;;;;;2141174;27;19930;-43
2022/07/11 02:47:20;;;;;;;;;;;;;;;;;;2141296;27;19988;-43
2022/07/11 02:48:21;;;;;;;;;;;;;;;;;;2141400;27;20367;-44
2022/07/11 02:49:23;;;;;;;;;;;;;;;;;;2141383;27;19970;-43
2022/07/11 02:50:23;;;;;;;;;;;;;;;;;;2141322;27;20021;-43
2022/07/11 02:51:24;;;;;;;;;;;;;;;;;;2141416;27;19970;-44
2022/07/11 02:52:25;;;;;;;;;;;;;;;;;;2141409;27;19930;-43
2022/07/11 02:53:26;;;;;;;;;;;;;;;;;;2141473;27;19929;-43
2022/07/11 02:54:28;;;;;;;;;;;;;;;;;;2141502;27;19930;-45
2022/07/11 02:55:29;;;;;;;;;;;;;;;;;;2141382;27;20006;-45
2022/07/11 02:56:30;;;;;;;;;;;;;;;;;;2141175;27;19968;-45
2022/07/11 02:57:31;;;;;;;;;;;;;;;;;;2141314;27;20373;-45
2022/07/11 02:58:31;;;;;;;;;;;;;;;;;;2141288;27;20017;-45
2022/07/11 02:59:33;;;;;;;;;;;;;;;;;;2141401;27;20386;-45
2022/07/11 03:00:33;;;;;;;;;;;;;;;;;;2141456;27;19923;-45
2022/07/11 03:01:34;;;;;;;;;;;;;;;;;;2141239;27;19923;-45
2022/07/11 03:02:35;;;;;;;;;;;;;;;;;;2141152;27;20399;-44
2022/07/11 03:03:36;;;;;;;;;;;;;;;;;;2141294;27;19958;-45
2022/07/11 03:04:37;;;;;;;;;;;;;;;;;;2141451;27;19922;-45
2022/07/11 03:05:38;;;;;;;;;;;;;;;;;;2141157;27;20009;-46
2022/07/11 03:06:39;;;;;;;;;;;;;;;;;;2141072;27;20009;-45
2022/07/11 03:07:40;;;;;;;;;;;;;;;;;;2141368;27;19923;-45
2022/07/11 03:08:41;;;;;;;;;;;;;;;;;;2141361;27;20013;-43
2022/07/11 03:09:42;;;;;;;;;;;;;;;;;;2141344;27;19962;-46
2022/07/11 03:10:42;;;;;;;;;;;;;;;;;;2141217;27;19969;-44
2022/07/11 03:11:43;;;;;;;;;;;;;;;;;;2134829;27;20014;-44
2022/07/11 03:12:45;;;;;;;;;;;;;;;;;;2131604;27;20076;-43
2022/07/11 03:13:46;;;;;;;;;;;;;;;;;;2132757;27;19961;-43
2022/07/11 03:14:47;;;;;;;;;;;;;;;;;;2132736;27;19923;-44
2022/07/11 03:15:48;;;;;;;;;;;;;;;;;;2132637;27;20375;-43
2022/07/11 03:16:48;;;;;;;;;;;;;;;;;;2132431;27;20018;-43
2022/07/11 03:17:50;;;;;;;;;;;;;;;;;;2132415;27;19929;-43
2022/07/11 03:18:51;;;;;;;;;;;;;;;;;;2132659;27;19930;-44
2022/07/11 03:19:52;;;;;;;;;;;;;;;;;;2132775;27;19969;-46
2022/07/11 03:20:53;;;;;;;;;;;;;;;;;;2132546;27;19954;-45
2022/07/11 03:21:54;;;;;;;;;;;;;;;;;;2132703;27;20356;-43
2022/07/11 03:22:54;;;;;;;;;;;;;;;;;;2132485;27;20287;-44
2022/07/11 03:23:55;;;;;;;;;;;;;;;;;;2132958;27;19927;-43
2022/07/11 03:24:56;;;;;;;;;;;;;;;;;;2132879;27;19923;-45
2022/07/11 03:25:57;;;;;;;;;;;;;;;;;;2132512;27;19930;-46
2022/07/11 03:26:58;;;;;;;;;;;;;;;;;;2132380;27;20287;-47
2022/07/11 03:27:59;;;;;;;;;;;;;;;;;;2132586;27;19923;-46
2022/07/11 03:29:00;;;;;;;;;;;;;;;;;;2132653;27;19978;-45
2022/07/11 03:30:01;;;;;;;;;;;;;;;;;;2132382;27;19926;-44
2022/07/11 03:31:02;;;;;;;;;;;;;;;;;;2132388;27;20071;-45
2022/07/11 03:32:03;;;;;;;;;;;;;;;;;;2132627;27;20355;-45
2022/07/11 03:33:04;;;;;;;;;;;;;;;;;;2132239;27;20392;-44
2022/07/11 03:34:05;;;;;;;;;;;;;;;;;;2132442;27;19933;-45
2022/07/11 03:36:25;;;;;;;;;;;;;;;;;;2132436;27;20067;-45
2022/07/11 03:37:26;;;;;;;;;;;;;;;;;;2132452;27;20006;-45
2022/07/11 03:38:27;;;;;;;;;;;;;;;;;;2132327;27;19958;-46
2022/07/11 03:39:28;;;;;;;;;;;;;;;;;;2132512;27;19967;-45
2022/07/11 03:40:29;;;;;;;;;;;;;;;;;;2132373;27;19923;-45
2022/07/11 03:41:30;;;;;;;;;;;;;;;;;;2132507;27;19923;-46
2022/07/11 03:42:31;;;;;;;;;;;;;;;;;;2140843;27;19923;-46
2022/07/11 03:43:31;;;;;;;;;;;;;;;;;;2141113;27;19958;-46
2022/07/11 03:44:32;;;;;;;;;;;;;;;;;;2140959;27;19923;-44
2022/07/11 03:45:34;;;;;;;;;;;;;;;;;;2140940;27;19972;-45
2022/07/11 03:46:35;;;;;;;;;;;;;;;;;;2140994;27;19923;-44
2022/07/11 03:47:36;;;;;;;;;;;;;;;;;;2140907;27;20400;-45
2022/07/11 03:48:37;;;;;;;;;;;;;;;;;;2140916;27;19923;-42
2022/07/11 03:49:38;;;;;;;;;;;;;;;;;;2141074;27;20022;-43
2022/07/11 03:50:39;;;;;;;;;;;;;;;;;;2141236;27;19954;-45
2022/07/11 03:51:40;;;;;;;;;;;;;;;;;;2141161;27;20398;-44
2022/07/11 03:52:41;;;;;;;;;;;;;;;;;;2141129;27;19923;-43
2022/07/11 03:53:42;;;;;;;;;;;;;;;;;;2140913;27;20276;-43
2022/07/11 03:54:43;;;;;;;;;;;;;;;;;;2141092;27;19950;-43
2022/07/11 03:55:44;;;;;;;;;;;;;;;;;;2140864;27;20297;-43
2022/07/11 03:56:45;;;;;;;;;;;;;;;;;;2140796;27;19926;-43
2022/07/11 03:57:45;;;;;;;;;;;;;;;;;;2141098;27;19961;-44
2022/07/11 03:58:46;;;;;;;;;;;;;;;;;;2141010;27;19929;-42
2022/07/11 03:59:47;;;;;;;;;;;;;;;;;;2141195;27;19923;-46
2022/07/11 04:00:49;;;;;;;;;;;;;;;;;;2140918;27;19935;-45
2022/07/11 04:01:49;;;;;;;;;;;;;;;;;;2140906;27;19930;-45
2022/07/11 04:02:50;;;;;;;;;;;;;;;;;;2140777;27;20368;-45
2022/07/11 04:03:51;;;;;;;;;;;;;;;;;;2140976;27;19930;-45
2022/07/11 04:04:52;;;;;;;;;;;;;;;;;;2140876;27;20013;-44
2022/07/11 04:05:53;;;;;;;;;;;;;;;;;;2140826;27;20252;-45
2022/07/11 04:06:54;;;;;;;;;;;;;;;;;;2141011;27;19922;-46
2022/07/11 04:07:55;;;;;;;;;;;;;;;;;;2140958;27;19923;-45
2022/07/11 04:08:56;;;;;;;;;;;;;;;;;;2140784;27;19923;-45
2022/07/11 04:09:56;;;;;;;;;;;;;;;;;;2141156;27;19929;-45
2022/07/11 04:10:57;;;;;;;;;;;;;;;;;;2140156;27;19989;-46
2022/07/11 04:11:58;;;;;;;;;;;;;;;;;;2132256;27;20047;-44
2022/07/11 04:12:59;;;;;;;;;;;;;;;;;;2132850;27;20142;-45
2022/07/11 04:14:00;;;;;;;;;;;;;;;;;;2132368;27;20392;-46
2022/07/11 04:15:01;;;;;;;;;;;;;;;;;;2132383;27;19955;-45
2022/07/11 04:16:02;;;;;;;;;;;;;;;;;;2132235;27;20308;-45
2022/07/11 04:17:03;;;;;;;;;;;;;;;;;;2132318;27;19929;-45
2022/07/11 04:18:03;;;;;;;;;;;;;;;;;;2132420;27;20408;-45
2022/07/11 04:19:05;;;;;;;;;;;;;;;;;;2132176;27;19978;-45
2022/07/11 04:20:05;;;;;;;;;;;;;;;;;;2132602;27;19923;-46
2022/07/11 04:21:06;;;;;;;;;;;;;;;;;;2132126;27;20406;-46
2022/07/11 04:22:09;;;;;;;;;;;;;;;;;;2132219;27;19986;-44
2022/07/11 04:23:10;;;;;;;;;;;;;;;;;;2132475;27;19923;-44
2022/07/11 04:24:11;;;;;;;;;;;;;;;;;;2132105;27;19959;-45
2022/07/11 04:25:12;;;;;;;;;;;;;;;;;;2132394;27;19930;-45
2022/07/11 04:26:13;;;;;;;;;;;;;;;;;;2132354;27;19927;-45
2022/07/11 04:27:14;;;;;;;;;;;;;;;;;;2132219;27;19923;-47
2022/07/11 04:28:18;;;;;;;;;;;;;;;;;;2132318;27;19923;-45
2022/07/11 04:29:19;;;;;;;;;;;;;;;;;;2132203;27;20436;-44
2022/07/11 04:30:20;;;;;;;;;;;;;;;;;;2132261;27;19923;-45
2022/07/11 04:31:21;;;;;;;;;;;;;;;;;;2132403;27;20006;-44
2022/07/11 04:32:22;;;;;;;;;;;;;;;;;;2132397;27;19923;-45
2022/07/11 04:33:23;;;;;;;;;;;;;;;;;;2132297;27;19930;-44
2022/07/11 04:34:23;;;;;;;;;;;;;;;;;;2132171;27;19923;-43
2022/07/11 04:35:26;;;;;;;;;;;;;;;;;;2132342;27;19927;-44
2022/07/11 04:36:27;;;;;;;;;;;;;;;;;;2132142;27;20017;-43
2022/07/11 04:37:28;;;;;;;;;;;;;;;;;;2132250;27;19923;-44
2022/07/11 04:38:29;;;;;;;;;;;;;;;;;;2138540;27;20018;-44
2022/07/11 04:39:30;;;;;;;;;;;;;;;;;;2140606;27;19965;-43
2022/07/11 04:40:30;;;;;;;;;;;;;;;;;;2140737;27;20280;-44
2022/07/11 04:41:31;;;;;;;;;;;;;;;;;;2140759;27;19967;-43
2022/07/11 04:42:32;;;;;;;;;;;;;;;;;;2140677;27;20022;-44
2022/07/11 04:43:35;;;;;;;;;;;;;;;;;;2140877;27;19957;-45
2022/07/11 04:44:36;;;;;;;;;;;;;;;;;;2140835;27;19929;-43
2022/07/11 04:45:37;;;;;;;;;;;;;;;;;;2140745;27;19927;-45
2022/07/11 04:46:38;;;;;;;;;;;;;;;;;;2140757;27;20006;-45
2022/07/11 04:47:39;;;;;;;;;;;;;;;;;;2140728;27;19971;-48
2022/07/11 04:48:39;;;;;;;;;;;;;;;;;;2140674;27;19971;-45
2022/07/11 04:49:41;;;;;;;;;;;;;;;;;;2140970;27;19966;-43
2022/07/11 04:50:41;;;;;;;;;;;;;;;;;;2140872;27;19996;-43
2022/07/11 04:51:42;;;;;;;;;;;;;;;;;;2140559;27;20367;-43
2022/07/11 04:52:43;;;;;;;;;;;;;;;;;;2140745;27;20480;-44
2022/07/11 04:53:44;;;;;;;;;;;;;;;;;;2140800;27;19935;-43
2022/07/11 04:54:46;;;;;;;;;;;;;;;;;;2140749;27;20012;-45
2022/07/11 04:55:46;;;;;;;;;;;;;;;;;;2140786;27;20017;-43
2022/07/11 04:56:47;;;;;;;;;;;;;;;;;;2140397;27;20055;-43
2022/07/11 04:57:49;;;;;;;;;;;;;;;;;;2140590;27;20054;-44
2022/07/11 04:58:50;;;;;;;;;;;;;;;;;;2140565;27;20052;-43
2022/07/11 04:59:50;;;;;;;;;;;;;;;;;;2140632;27;19926;-44
2022/07/11 05:00:51;;;;;;;;;;;;;;;;;;2140561;27;20018;-45
2022/07/11 05:01:52;;;;;;;;;;;;;;;;;;2140657;27;19923;-45
2022/07/11 05:02:55;;;;;;;;;;;;;;;;;;2140543;27;20367;-45
2022/07/11 05:03:55;;;;;;;;;;;;;;;;;;2140694;27;19922;-45
2022/07/11 05:04:56;;;;;;;;;;;;;;;;;;2140610;27;19930;-47
2022/07/11 05:05:57;;;;;;;;;;;;;;;;;;2140492;27;20212;-46
2022/07/11 05:06:58;;;;;;;;;;;;;;;;;;2140390;27;19954;-45
2022/07/11 05:07:59;;;;;;;;;;;;;;;;;;2140480;27;19970;-46
2022/07/11 05:09:00;;;;;;;;;;;;;;;;;;2140494;27;20430;-46
2022/07/11 05:10:01;;;;;;;;;;;;;;;;;;2140594;27;20472;-45
2022/07/11 05:11:02;;;;;;;;;;;;;;;;;;2139373;27;19931;-44
2022/07/11 05:12:03;;;;;;;;;;;;;;;;;;2131982;27;19962;-44
2022/07/11 05:13:05;;;;;;;;;;;;;;;;;;2132033;27;19930;-45
2022/07/11 05:14:05;;;;;;;;;;;;;;;;;;2132423;27;20010;-46
2022/07/11 05:15:06;;;;;;;;;;;;;;;;;;2131912;27;20466;-46
2022/07/11 05:16:07;;;;;;;;;;;;;;;;;;2131690;27;20013;-46
2022/07/11 05:17:08;;;;;;;;;;;;;;;;;;2131880;27;20015;-45
2022/07/11 05:18:09;;;;;;;;;;;;;;;;;;2132040;27;19964;-45
2022/07/11 05:19:10;;;;;;;;;;;;;;;;;;2131773;27;20405;-46
2022/07/11 05:20:11;;;;;;;;;;;;;;;;;;2131910;27;20341;-47
2022/07/11 05:21:12;;;;;;;;;;;;;;;;;;2131792;27;19972;-46
2022/07/11 05:22:13;;;;;;;;;;;;;;;;;;2132088;27;20376;-43
2022/07/11 05:23:13;;;;;;;;;;;;;;;;;;2131846;27;20366;-44
2022/07/11 05:24:14;;;;;;;;;;;;;;;;;;2131819;27;19965;-44
2022/07/11 05:25:15;;;;;;;;;;;;;;;;;;2132054;27;19923;-44
2022/07/11 05:26:16;;;;;;;;;;;;;;;;;;2132082;27;19954;-46
2022/07/11 05:27:17;;;;;;;;;;;;;;;;;;2131828;27;19931;-45
2022/07/11 05:28:18;;;;;;;;;;;;;;;;;;2132135;27;19930;-45
2022/07/11 05:29:19;;;;;;;;;;;;;;;;;;2132029;27;19923;-44
2022/07/11 05:30:20;;;;;;;;;;;;;;;;;;2132209;27;19934;-45
2022/07/11 05:31:21;;;;;;;;;;;;;;;;;;2131909;27;20022;-45
2022/07/11 05:32:22;;;;;;;;;;;;;;;;;;2131871;27;19923;-46
2022/07/11 05:33:23;;;;;;;;;;;;;;;;;;2132006;27;20052;-47
2022/07/11 05:34:25;;;;;;;;;;;;;;;;;;2135289;27;20009;-45
2022/07/11 05:35:26;;;;;;;;;;;;;;;;;;2133713;27;20416;-45
2022/07/11 05:36:27;;;;;;;;;;;;;;;;;;2131377;27;19973;-45
2022/07/11 05:37:27;;;;;;;;;;;;;;;;;;2131668;27;19973;-45
2022/07/11 05:38:29;;;;;;;;;;;;;;;;;;2131809;27;19983;-45
2022/07/11 05:39:29;;;;;;;;;;;;;;;;;;2131629;27;20447;-44
2022/07/11 05:40:31;;;;;;;;;;;;;;;;;;2131834;27;20013;-45
2022/07/11 05:41:31;;;;;;;;;;;;;;;;;;2131882;27;19923;-43
2022/07/11 05:42:32;;;;;;;;;;;;;;;;;;2132493;27;20017;-46
2022/07/11 05:43:33;;;;;;;;;;;;;;;;;;2131614;27;19958;-45
2022/07/11 05:44:34;;;;;;;;;;;;;;;;;;2131708;27;20376;-45
2022/07/11 05:45:35;;;;;;;;;;;;;;;;;;2132149;27;20005;-42
2022/07/11 05:46:39;;;;;;;;;;;;;;;;;;2132533;27;19923;-44
2022/07/11 05:47:40;;;;;;;;;;;;;;;;;;2132092;27;20380;-43
2022/07/11 05:48:41;;;;;;;;;;;;;;;;;;2131849;27;19931;-44
2022/07/11 05:49:42;;;;;;;;;;;;;;;;;;2131768;27;19930;-44
2022/07/11 05:50:43;;;;;;;;;;;;;;;;;;2131909;27;19947;-44
2022/07/11 05:51:43;;;;;;;;;;;;;;;;;;2132231;27;19923;-43
2022/07/11 05:52:44;;;;;;;;;;;;;;;;;;2132078;27;20014;-42
2022/07/11 05:53:45;;;;;;;;;;;;;;;;;;2132057;27;19973;-44
2022/07/11 05:54:46;;;;;;;;;;;;;;;;;;2131630;27;20030;-43
2022/07/11 05:55:47;;;;;;;;;;;;;;;;;;2131855;27;19969;-45
2022/07/11 05:56:48;;;;;;;;;;;;;;;;;;2131915;27;19930;-44
2022/07/11 05:57:48;;;;;;;;;;;;;;;;;;2131936;27;19962;-44
2022/07/11 05:58:49;;;;;;;;;;;;;;;;;;2131902;27;19945;-44
2022/07/11 05:59:51;;;;;;;;;;;;;;;;;;2131498;27;19927;-45
2022/07/11 06:00:52;;;;;;;;;;;;;;;;;;2132251;27;20160;-45
2022/07/11 06:01:53;;;;;;;;;;;;;;;;;;2131749;27;20241;-44
2022/07/11 06:02:54;;;;;;;;;;;;;;;;;;2131935;27;19941;-44
2022/07/11 06:03:55;;;;;;;;;;;;;;;;;;2131653;27;20007;-45
2022/07/11 06:04:56;;;;;;;;;;;;;;;;;;2131949;27;20296;-45
2022/07/11 06:05:57;;;;;;;;;;;;;;;;;;2131900;27;19923;-45
2022/07/11 06:06:58;;;;;;;;;;;;;;;;;;2131915;27;20010;-44
2022/07/11 06:09:18;;;;;;;;;;;;;;;;;;2132346;27;19941;-43
2022/07/11 06:10:19;;;;;;;;;;;;;;;;;;2131980;27;19923;-43
2022/07/11 06:11:20;;;;;;;;;;;;;;;;;;2131337;27;19970;-43
2022/07/11 06:12:22;;;;;;;;;;;;;;;;;;2132079;27;19941;-44
2022/07/11 06:13:23;;;;;;;;;;;;;;;;;;2131872;27;20014;-47
2022/07/11 06:14:24;;;;;;;;;;;;;;;;;;2131964;27;20014;-43
2022/07/11 06:15:25;;;;;;;;;;;;;;;;;;2132064;27;20014;-45
2022/07/11 06:16:26;;;;;;;;;;;;;;;;;;2131679;27;20037;-44
2022/07/11 06:17:27;;;;;;;;;;;;;;;;;;2131445;27;19956;-44
2022/07/11 06:18:28;;;;;;;;;;;;;;;;;;2131865;27;19923;-44
2022/07/11 06:19:29;;;;;;;;;;;;;;;;;;2131545;27;19976;-46
2022/07/11 06:20:31;;;;;;;;;;;;;;;;;;2131577;27;20028;-44
2022/07/11 06:21:32;;;;;;;;;;;;;;;;;;2131988;27;20473;-44
2022/07/11 06:22:32;;;;;;;;;;;;;;;;;;2131477;27;20034;-43
2022/07/11 06:23:34;;;;;;;;;;;;;;;;;;2132011;27;20006;-45
2022/07/11 06:24:35;;;;;;;;;;;;;;;;;;2131808;27;19980;-43
2022/07/11 06:25:37;;;;;;;;;;;;;;;;;;2131841;27;19976;-45
2022/07/11 06:26:38;;;;;;;;;;;;;;;;;;2131605;27;20388;-45
2022/07/11 06:27:57;;;;;;;;;;;;;;;;;;2131954;27;19966;-44
2022/07/11 06:28:58;;;;;;;;;;;;;;;;;;2131613;27;19923;-43
2022/07/11 06:29:59;;;;;;;;;;;;;;;;;;2131410;27;20380;-45
2022/07/11 06:31:00;;;;;;;;;;;;;;;;;;2138538;27;20052;-44
2022/07/11 06:32:01;;;;;;;;;;;;;;;;;;2131671;27;19945;-43
2022/07/11 06:33:02;;;;;;;;;;;;;;;;;;2132177;27;19935;-43
2022/07/11 06:34:03;;;;;;;;;;;;;;;;;;2131738;27;20249;-44
2022/07/11 06:35:03;;;;;;;;;;;;;;;;;;2131734;27;20018;-46
2022/07/11 06:36:05;;;;;;;;;;;;;;;;;;2131493;27;20029;-45
2022/07/11 06:37:06;;;;;;;;;;;;;;;;;;2131732;27;20018;-43
2022/07/11 06:38:07;;;;;;;;;;;;;;;;;;2131838;27;19958;-45
2022/07/11 06:39:08;;;;;;;;;;;;;;;;;;2131787;27;19923;-45
2022/07/11 06:40:11;;;;;;;;;;;;;;;;;;2131726;27;20375;-44
2022/07/11 06:41:12;;;;;;;;;;;;;;;;;;2131653;27;20014;-45
2022/07/11 06:42:13;;;;;;;;;;;;;;;;;;2131329;27;20006;-44
2022/07/11 06:43:14;;;;;;;;;;;;;;;;;;2131937;27;20011;-45
2022/07/11 06:44:15;;;;;;;;;;;;;;;;;;2131932;27;20032;-44
2022/07/11 06:45:17;;;;;;;;;;;;;;;;;;2131642;27;20442;-44
2022/07/11 06:46:18;;;;;;;;;;;;;;;;;;2131185;27;20317;-43
2022/07/11 06:47:19;;;;;;;;;;;;;;;;;;2132800;27;19950;-43
2022/07/11 06:48:20;;;;;;;;;;;;;;;;;;2132873;27;19923;-43
2022/07/11 06:49:21;;;;;;;;;;;;;;;;;;2133048;27;19927;-42
2022/07/11 06:50:22;;;;;;;;;;;;;;;;;;2133516;27;19928;-44
2022/07/11 06:51:23;;;;;;;;;;;;;;;;;;2132834;27;19962;-43
2022/07/11 06:52:24;;;;;;;;;;;;;;;;;;2133192;27;20337;-43
2022/07/11 06:53:25;;;;;;;;;;;;;;;;;;2132864;27;20002;-43
2022/07/11 06:54:26;;;;;;;;;;;;;;;;;;2133211;27;20115;-46
2022/07/11 06:55:26;;;;;;;;;;;;;;;;;;2132807;27;19923;-46
2022/07/11 06:56:27;;;;;;;;;;;;;;;;;;2132927;27;19923;-43
2022/07/11 06:57:28;;;;;;;;;;;;;;;;;;2133070;27;19930;-45
2022/07/11 06:58:32;;;;;;;;;;;;;;;;;;2133332;27;20379;-45
2022/07/11 06:59:33;;;;;;;;;;;;;;;;;;2132898;27;20310;-45
2022/07/11 07:00:34;;;;;;;;;;;;;;;;;;2133080;27;19907;-43